x

La Perouse Bank (46206) Wave Buoy

1:00 - Fri 29th Apr 2016 All times are PDT. -7 hours from GMT.

  • Sig Wave height 5.9ft
  • Peak Period 12s
  • Wind
    7mph, 9mph gusts
  • Sea Temp 53°f
  • Aire Temp 49°f
  • Sea Pressure 1020.2mb
  • La Perouse Bank
  • La Perouse Bank

More Historic Weather Station data

Upgrade to MSW Pro to gain access to the past 30 days of data for over 8000 Wavebouys and Weather Stations around the globe.

Join Pro

Comparision Forecast

View Surf forecast
   
vie 04/29 1:00 6ft 12s 7 9 mph 1020.2mb 53f 49f
12:00 6ft 13s 9 13 mph 1020.5mb 53f 50f
jue 04/28 11:00 6.5ft 13s 7 9 mph 1020.5mb 53f 51f
10:00 7ft 14s 7 9 mph 1020.6mb 53f 51f
9:00 7ft 14s 9 11 mph 1020.4mb 53f 51f
8:00 7.5ft 14s 9 11 mph 1020.3mb 53f 51f
7:00 8ft 12s 9 13 mph 1020.3mb 53f 51f
6:00 8ft 14s 9 13 mph 1020.5mb 53f 50f
5:00 7.5ft 12s 9 13 mph 1020.6mb 53f 51f
4:00 8ft 14s 9 11 mph 1020.9mb 53f 51f
3:00 9ft 12s 7 9 mph 1021mb 53f 51f
2:00 9ft 14s 11 16 mph 1021.3mb 53f 50f
1:00 9ft 14s 13 18 mph 1021.2mb 53f 51f
12:00 9ft 13s 9 13 mph 1021.1mb 53f 50f
11:00 9ft 14s 4 9 mph 1020.6mb 53f 49f
10:00 9ft 14s 7 9 mph 1020.2mb 53f 50f
9:00 9.5ft 14s 9 11 mph 1020.3mb 53f 51f
8:00 9ft 13s 9 11 mph 1020mb 53f 50f
7:00 9.5ft 14s 11 13 mph 1019.8mb 53f 51f
6:00 9ft 15s 11 18 mph 1019.8mb 53f 51f
5:00 9.5ft 14s 11 18 mph 1019.1mb 53f 51f
4:00 9ft 15s 13 18 mph 1018.9mb 53f 51f
3:00 8.5ft 15s 11 16 mph 1018.7mb 53f 51f
2:00 9ft 14s 11 16 mph 1018.6mb 53f 51f
1:00 9ft 14s 13 18 mph 1018.6mb 53f 51f
12:00 9ft 14s 16 20 mph 1018.4mb 53f 51f
mié 04/27 11:00 9.5ft 15s 16 20 mph 1018.3mb 53f 51f
10:00 10.5ft 12s 18 22 mph 1018.3mb 53f 51f
9:00 10ft 14s 18 22 mph 1018.2mb 53f 52f
8:00 9.5ft 12s 18 20 mph 1018.1mb 53f 52f
7:00 9.5ft 13s 16 20 mph 1018.1mb 53f 52f
6:00 9.5ft 14s 13 18 mph 1018.2mb 54f 52f
5:00 8ft 14s 13 16 mph 1018.3mb 54f 52f
4:00 8ft 13s 11 13 mph 1018.5mb 54f 52f
3:00 8ft 13s 9 11 mph 1018.6mb 55f 52f
2:00 8ft 11s 7 9 mph 1018.6mb 55f 51f
1:00 8ft 10s 2 4 mph 1018.5mb 54f 51f
12:00 7.5ft 9s  -  2 mph 1018.3mb 54f 53f
11:00 7.5ft 10s 2 7 mph 1018mb 53f 51f
10:00 8ft 10s 4 9 mph 1017.6mb 53f 51f
9:00 8ft 10s 7 9 mph 1017.2mb 53f 50f
8:00 7ft 10s 9 13 mph 1017.1mb 53f 49f
7:00 7ft 11s 11 16 mph 1016.7mb 53f 49f
6:00 7ft 10s 13 18 mph 1016.3mb 53f 49f
5:00 7ft 10s 13 18 mph 1016.3mb 53f 49f
4:00 6.5ft 11s 13 18 mph 1016.4mb 53f 48f
3:00 7ft 11s 16 18 mph 1016.4mb 53f 48f
1:00 6ft 8s 13 18 mph 1016.8mb 53f 48f
12:00 7ft 12s 13 18 mph 1016.9mb 53f 49f
mar 04/26 11:00 7.5ft 11s 9 13 mph 1017.3mb 53f 49f
10:00 8ft 10s 16 18 mph 1017.4mb 53f 49f
9:00 8.5ft 11s 16 18 mph 1017.4mb 53f 49f
8:00 8ft 11s 16 20 mph 1017.4mb 53f 49f
7:00 9ft 11s 16 20 mph 1017.3mb 53f 50f
6:00 8.5ft 11s 13 16 mph 1017.6mb 53f 50f
5:00 8ft 11s 16 18 mph 1017.9mb 53f 50f
4:00 7ft 11s 16 20 mph 1018mb 53f 51f
3:00 6.5ft 11s 16 22 mph 1018.2mb 53f 51f
2:00 6ft 10s 18 22 mph 1018.7mb 53f 51f
1:00 6ft 11s 18 20 mph 1018.9mb 53f 51f
12:00 6ft 10s 18 22 mph 1019.1mb 52f 50f
11:00 5.5ft 10s 16 18 mph 1019.2mb 52f 51f
10:00 5.5ft 12s 13 18 mph 1019.5mb 52f 51f
9:00 5ft 10s 13 18 mph 1019.7mb 52f 50f
8:00 6ft 10s 13 16 mph 1020mb 52f 50f
7:00 6ft 10s 13 16 mph 1019.9mb 52f 50f
6:00 6.5ft 12s 11 13 mph 1020.1mb 52f 50f
5:00 7ft 10s 9 13 mph 1020.4mb 53f 50f
4:00 6.5ft 12s 9 11 mph 1021.1mb 53f 50f
3:00 8ft 12s 7 11 mph 1021.4mb 53f 49f
2:00 8ft 12s 7 9 mph 1022mb 53f 50f
1:00 8.5ft 12s 4 7 mph 1022.2mb 53f 49f
12:00 8.5ft 13s 4 7 mph 1022.6mb 53f 49f
lun 04/25 11:00 8.5ft 12s 7 9 mph 1023mb 53f 49f
10:00 8.5ft 12s 4 7 mph 1023.1mb 53f 49f
9:00 8.5ft 13s 7 11 mph 1023.5mb 53f 50f
8:00 9ft 14s 9 11 mph 1023.2mb 53f 50f
7:00 10ft 14s 9 11 mph 1023.4mb 53f 50f
6:00 10ft 13s 9 13 mph 1023.5mb 53f 50f
5:00 11.5ft 14s 11 16 mph 1023.8mb 53f 50f
4:00 13.5ft 14s 11 16 mph 1024.1mb 53f 50f
3:00 10.5ft 14s 13 18 mph 1024.3mb 52f 50f
2:00 11.5ft 14s 11 16 mph 1024.3mb 53f 50f
1:00 12ft 15s 13 18 mph 1024.3mb 53f 50f
12:00 12ft 14s 13 18 mph 1024.2mb 53f 50f
11:00 12.5ft 14s 13 18 mph 1024.2mb 53f 50f
10:00 11.5ft 14s 13 18 mph 1024mb 53f 50f